Time;durP1;ratioP1;P1;durP2;ratioP2;P2;SDS_P1;SDS_P2;PMS_P1;PMS_P2;Temp;Humidity;BMP_temperature;BMP_pressure;BME280_temperature;BME280_humidity;BME280_pressure;Samples;Min_cycle;Max_cycle;Signal;HPM_P1;HPM_P2
2023/06/08 00:00:31;;;;;;;4.30;4.10;;;;;;;;;;10352075;28;21079;-78
2023/06/08 00:05:43;;;;;;;4.20;4.00;;;;;;;;;;10345853;28;20233;-78
2023/06/08 00:10:45;;;;;;;5.75;3.83;;;;;;;;;;10351290;28;20728;-78
2023/06/08 00:15:46;;;;;;;4.30;4.10;;;;;;;;;;10345556;28;20515;-79
2023/06/08 00:20:47;;;;;;;6.60;4.90;;;;;;;;;;10320283;28;20218;-78
2023/06/08 00:25:48;;;;;;;5.55;5.15;;;;;;;;;;10338989;28;20227;-78
2023/06/08 00:30:49;;;;;;;5.28;4.85;;;;;;;;;;10338621;28;20349;-78
2023/06/08 00:35:52;;;;;;;4.97;4.57;;;;;;;;;;10334824;28;20217;-78
2023/06/08 00:40:53;;;;;;;5.40;4.63;;;;;;;;;;10322452;28;20236;-78
2023/06/08 00:45:57;;;;;;;5.38;5.00;;;;;;;;;;10317962;28;20394;-78
2023/06/08 00:51:00;;;;;;;4.65;4.35;;;;;;;;;;10347848;28;20307;-78
2023/06/08 00:56:02;;;;;;;4.68;4.50;;;;;;;;;;10333966;28;20637;-78
2023/06/08 01:01:03;;;;;;;5.75;4.60;;;;;;;;;;10337737;28;20222;-78
2023/06/08 01:06:08;;;;;;;5.50;5.05;;;;;;;;;;10339684;28;21297;-79
2023/06/08 01:11:17;;;;;;;4.97;4.40;;;;;;;;;;10346396;28;20295;-78
2023/06/08 01:16:19;;;;;;;4.75;4.28;;;;;;;;;;10334581;28;20933;-79
2023/06/08 01:21:39;;;;;;;3.80;3.70;;;;;;;;;;10297686;28;21353;-79
2023/06/08 01:26:41;;;;;;;4.40;4.10;;;;;;;;;;10312576;28;20722;-78
2023/06/08 01:31:45;;;;;;;4.55;4.35;;;;;;;;;;10337322;28;20222;-79
2023/06/08 01:37:13;;;;;;;4.05;3.70;;;;;;;;;;10335833;28;20257;-78
2023/06/08 01:42:18;;;;;;;3.53;3.38;;;;;;;;;;10318335;28;20226;-77
2023/06/08 01:47:21;;;;;;;4.30;4.03;;;;;;;;;;10336596;28;20229;-78
2023/06/08 01:52:22;;;;;;;4.40;4.13;;;;;;;;;;10342672;28;20210;-77
2023/06/08 01:57:23;;;;;;;4.15;3.88;;;;;;;;;;10336067;28;20287;-78
2023/06/08 02:02:24;;;;;;;4.40;4.20;;;;;;;;;;10359873;28;20233;-77
2023/06/08 02:07:25;;;;;;;6.53;5.00;;;;;;;;;;10341523;28;20849;-77
2023/06/08 02:12:26;;;;;;;4.82;4.35;;;;;;;;;;10343338;28;20303;-78
2023/06/08 02:17:33;;;;;;;5.05;4.55;;;;;;;;;;10332796;28;20609;-77
2023/06/08 02:22:35;;;;;;;5.25;4.95;;;;;;;;;;10325801;28;20217;-78
2023/06/08 02:27:36;;;;;;;4.72;4.40;;;;;;;;;;10342657;28;20218;-78
2023/06/08 02:32:41;;;;;;;5.05;4.63;;;;;;;;;;10328746;28;20226;-78
2023/06/08 02:37:44;;;;;;;4.93;4.53;;;;;;;;;;10321723;28;20903;-78
2023/06/08 02:42:46;;;;;;;5.22;4.38;;;;;;;;;;10317880;28;20222;-77
2023/06/08 02:47:50;;;;;;;5.30;5.00;;;;;;;;;;10340701;28;20348;-78
2023/06/08 02:52:51;;;;;;;4.93;4.60;;;;;;;;;;10323001;28;20331;-78
2023/06/08 02:57:52;;;;;;;5.90;5.15;;;;;;;;;;10316719;28;20251;-77
2023/06/08 03:03:00;;;;;;;4.68;4.47;;;;;;;;;;10335264;28;20318;-78
2023/06/08 03:08:02;;;;;;;5.18;4.88;;;;;;;;;;10321967;28;20229;-79
2023/06/08 03:13:03;;;;;;;5.50;5.22;;;;;;;;;;10350086;28;21205;-80
2023/06/08 03:18:05;;;;;;;5.72;4.95;;;;;;;;;;10358431;28;20292;-77
2023/06/08 03:23:09;;;;;;;5.80;4.82;;;;;;;;;;10318966;28;20255;-77
2023/06/08 03:28:11;;;;;;;6.95;5.57;;;;;;;;;;10344877;28;21152;-78
2023/06/08 03:33:14;;;;;;;5.78;5.38;;;;;;;;;;10336555;28;20225;-79
2023/06/08 03:38:22;;;;;;;5.00;4.80;;;;;;;;;;10327256;28;20673;-77
2023/06/08 03:43:25;;;;;;;5.93;5.35;;;;;;;;;;10319155;28;20217;-78
2023/06/08 03:48:26;;;;;;;5.60;5.13;;;;;;;;;;10353652;28;20271;-78
2023/06/08 03:53:29;;;;;;;5.15;4.95;;;;;;;;;;10337554;28;21212;-79
2023/06/08 03:58:31;;;;;;;5.75;5.25;;;;;;;;;;10339488;28;20214;-78
2023/06/08 04:03:32;;;;;;;6.22;5.63;;;;;;;;;;10332552;28;21340;-78
2023/06/08 04:08:33;;;;;;;5.38;5.05;;;;;;;;;;10360438;28;20214;-76
2023/06/08 04:13:36;;;;;;;5.40;5.20;;;;;;;;;;10324294;28;20232;-77
2023/06/08 04:18:42;;;;;;;7.57;6.78;;;;;;;;;;10351181;28;20852;-78
2023/06/08 04:23:46;;;;;;;6.25;5.72;;;;;;;;;;10326894;28;21422;-78
2023/06/08 04:28:50;;;;;;;6.20;5.90;;;;;;;;;;10341681;28;20218;-78
2023/06/08 04:33:51;;;;;;;6.00;5.63;;;;;;;;;;10320438;28;20233;-81
2023/06/08 04:38:55;;;;;;;6.50;6.13;;;;;;;;;;10326684;28;20218;-77
2023/06/08 04:44:01;;;;;;;6.25;5.95;;;;;;;;;;10330509;28;20948;-78
2023/06/08 04:49:04;;;;;;;6.10;5.75;;;;;;;;;;10328579;28;21555;-78
2023/06/08 04:54:13;;;;;;;6.75;6.25;;;;;;;;;;10318954;28;20233;-78
2023/06/08 04:59:14;;;;;;;7.03;6.43;;;;;;;;;;10318319;28;20222;-78
2023/06/08 05:04:16;;;;;;;6.82;6.22;;;;;;;;;;10300399;28;20255;-78
2023/06/08 05:09:17;;;;;;;6.72;6.40;;;;;;;;;;10288857;28;20211;-78
2023/06/08 05:14:18;;;;;;;7.50;6.95;;;;;;;;;;10302054;28;20269;-78
2023/06/08 05:19:19;;;;;;;9.55;7.30;;;;;;;;;;10302349;28;21027;-78
2023/06/08 05:24:21;;;;;;;8.23;7.03;;;;;;;;;;10292342;28;20229;-76
2023/06/08 05:29:22;;;;;;;7.32;6.90;;;;;;;;;;10281345;28;20226;-78
2023/06/08 05:34:23;;;;;;;7.32;6.72;;;;;;;;;;10295916;28;20938;-76
2023/06/08 05:39:24;;;;;;;11.38;7.80;;;;;;;;;;10278795;28;20793;-76
2023/06/08 05:44:25;;;;;;;7.25;6.75;;;;;;;;;;10263554;28;20226;-77
2023/06/08 05:49:27;;;;;;;6.80;6.35;;;;;;;;;;10290013;28;20221;-76
2023/06/08 05:54:29;;;;;;;7.10;6.43;;;;;;;;;;10276904;28;21266;-78
2023/06/08 05:59:30;;;;;;;6.75;6.35;;;;;;;;;;10285915;28;20251;-78
2023/06/08 06:04:31;;;;;;;6.43;5.88;;;;;;;;;;10281365;28;20229;-76
2023/06/08 06:09:33;;;;;;;7.32;6.60;;;;;;;;;;10334174;28;20225;-76
2023/06/08 06:14:38;;;;;;;6.13;5.65;;;;;;;;;;10337156;28;20492;-77
2023/06/08 06:19:39;;;;;;;4.97;4.78;;;;;;;;;;10337276;28;21650;-76
2023/06/08 06:24:40;;;;;;;6.38;5.88;;;;;;;;;;10346515;28;20214;-77
2023/06/08 06:29:42;;;;;;;5.38;5.07;;;;;;;;;;10341057;28;20253;-78
2023/06/08 06:34:46;;;;;;;8.80;5.68;;;;;;;;;;10343198;28;20726;-78
2023/06/08 06:39:48;;;;;;;5.72;5.50;;;;;;;;;;10352143;28;20768;-78
2023/06/08 06:44:49;;;;;;;5.63;5.03;;;;;;;;;;10329989;28;20328;-76
2023/06/08 06:49:50;;;;;;;6.03;5.40;;;;;;;;;;10338597;28;21581;-78
2023/06/08 06:54:51;;;;;;;4.80;4.50;;;;;;;;;;10365660;28;20756;-77
2023/06/08 06:59:52;;;;;;;6.80;5.20;;;;;;;;;;10334720;28;20230;-78
2023/06/08 07:04:54;;;;;;;6.13;5.43;;;;;;;;;;10345791;28;20234;-76
2023/06/08 07:09:55;;;;;;;5.53;4.70;;;;;;;;;;10342640;28;20338;-79
2023/06/08 07:14:56;;;;;;;5.47;5.07;;;;;;;;;;10343033;28;21085;-76
2023/06/08 07:19:58;;;;;;;4.65;4.22;;;;;;;;;;10352018;28;20226;-75
2023/06/08 07:24:59;;;;;;;4.45;4.22;;;;;;;;;;10325639;28;20286;-76
2023/06/08 07:30:00;;;;;;;4.88;4.47;;;;;;;;;;10358792;28;20249;-77
2023/06/08 07:35:04;;;;;;;4.00;3.70;;;;;;;;;;10347292;28;20295;-77
2023/06/08 07:40:08;;;;;;;8.10;3.72;;;;;;;;;;10345956;28;21058;-78
2023/06/08 07:45:11;;;;;;;5.72;3.85;;;;;;;;;;10347071;28;20380;-77
2023/06/08 07:50:12;;;;;;;4.88;3.22;;;;;;;;;;10345743;28;20218;-78
2023/06/08 07:55:13;;;;;;;5.30;3.00;;;;;;;;;;10346640;28;20263;-78
2023/06/08 08:00:15;;;;;;;2.92;2.72;;;;;;;;;;10333811;28;20210;-76
2023/06/08 08:05:17;;;;;;;4.30;2.22;;;;;;;;;;10359320;28;22836;-78
2023/06/08 08:10:18;;;;;;;2.00;2.00;;;;;;;;;;10342392;28;20867;-76
2023/06/08 08:15:19;;;;;;;2.53;2.33;;;;;;;;;;10325199;28;20206;-79
2023/06/08 08:20:20;;;;;;;2.97;2.05;;;;;;;;;;10354548;28;21559;-77
2023/06/08 08:25:21;;;;;;;2.05;2.00;;;;;;;;;;10358368;28;20246;-79
2023/06/08 08:30:22;;;;;;;2.53;2.03;;;;;;;;;;10351418;28;20756;-77
2023/06/08 08:35:28;;;;;;;2.67;2.05;;;;;;;;;;10342125;28;21523;-77
2023/06/08 08:40:30;;;;;;;2.10;2.00;;;;;;;;;;10352821;28;20218;-76
2023/06/08 08:45:34;;;;;;;51.03;7.30;;;;;;;;;;10360000;28;20760;-78
2023/06/08 08:50:36;;;;;;;6.93;2.10;;;;;;;;;;10365707;28;20250;-76
2023/06/08 08:55:41;;;;;;;2.13;2.03;;;;;;;;;;10339998;28;20276;-75
2023/06/08 09:00:42;;;;;;;2.05;1.95;;;;;;;;;;10316787;28;20232;-78
2023/06/08 09:05:43;;;;;;;2.53;2.42;;;;;;;;;;10340154;28;20229;-77
2023/06/08 09:10:59;;;;;;;4.15;2.20;;;;;;;;;;10326900;28;20214;-77
2023/06/08 09:16:10;;;;;;;1.83;1.73;;;;;;;;;;10327794;28;20209;-76
2023/06/08 09:21:24;;;;;;;2.08;1.98;;;;;;;;;;10329046;28;20222;-80
2023/06/08 09:26:32;;;;;;;1.80;1.80;;;;;;;;;;10346091;28;20315;-76
2023/06/08 09:31:34;;;;;;;4.28;2.22;;;;;;;;;;10330444;28;20300;-77
2023/06/08 09:36:38;;;;;;;1.92;1.92;;;;;;;;;;10342559;28;20224;-77
2023/06/08 09:41:39;;;;;;;1.98;1.88;;;;;;;;;;10332521;28;21676;-78
2023/06/08 09:46:41;;;;;;;3.30;2.10;;;;;;;;;;10325814;28;20214;-77
2023/06/08 09:51:52;;;;;;;1.70;1.70;;;;;;;;;;10328257;28;20250;-78
2023/06/08 09:56:57;;;;;;;2.50;2.40;;;;;;;;;;10348923;28;20729;-77
2023/06/08 10:02:01;;;;;;;1.65;1.65;;;;;;;;;;10345991;28;20214;-77
2023/06/08 10:07:03;;;;;;;3.03;2.00;;;;;;;;;;10333831;28;21188;-80
2023/06/08 10:12:05;;;;;;;9.70;1.67;;;;;;;;;;10320083;28;20218;-77
2023/06/08 10:17:07;;;;;;;2.72;1.55;;;;;;;;;;10337109;28;20217;-79
2023/06/08 10:22:09;;;;;;;2.92;1.98;;;;;;;;;;10320776;28;20341;-81
2023/06/08 10:27:16;;;;;;;9.07;2.65;;;;;;;;;;10347327;28;20207;-78
2023/06/08 10:32:17;;;;;;;1.85;1.75;;;;;;;;;;10340975;28;20647;-79
2023/06/08 10:37:34;;;;;;;4.95;1.85;;;;;;;;;;10347987;28;20943;-78
2023/06/08 10:42:35;;;;;;;2.10;2.00;;;;;;;;;;10335097;28;20225;-78
2023/06/08 10:47:37;;;;;;;3.50;2.03;;;;;;;;;;10354730;28;20219;-81
2023/06/08 10:52:44;;;;;;;1.92;1.90;;;;;;;;;;10368987;28;20229;-80
2023/06/08 10:57:56;;;;;;;2.72;2.00;;;;;;;;;;10355602;28;20345;-79
2023/06/08 11:03:01;;;;;;;2.22;2.22;;;;;;;;;;10343342;28;20214;-80
2023/06/08 11:08:02;;;;;;;2.00;1.90;;;;;;;;;;10354754;28;20234;-79
2023/06/08 11:13:05;;;;;;;1.45;1.45;;;;;;;;;;10345180;28;20217;-79
2023/06/08 11:18:08;;;;;;;3.28;2.22;;;;;;;;;;10351175;28;21203;-79
2023/06/08 11:23:10;;;;;;;1.85;1.85;;;;;;;;;;10352916;28;20222;-77
2023/06/08 11:28:11;;;;;;;2.90;2.20;;;;;;;;;;10354551;28;20333;-79
2023/06/08 11:33:15;;;;;;;2.20;2.10;;;;;;;;;;10364095;28;20801;-79
2023/06/08 11:38:16;;;;;;;3.55;2.10;;;;;;;;;;10334092;28;21260;-79
2023/06/08 11:43:17;;;;;;;2.22;2.10;;;;;;;;;;10346220;28;20775;-80
2023/06/08 11:48:23;;;;;;;2.85;1.92;;;;;;;;;;10344132;28;20302;-79
2023/06/08 11:53:24;;;;;;;3.78;1.92;;;;;;;;;;10360831;28;20230;-80
2023/06/08 11:58:29;;;;;;;2.75;2.10;;;;;;;;;;10344205;28;20237;-79
2023/06/08 12:03:33;;;;;;;3.65;1.83;;;;;;;;;;10357537;28;21472;-79
2023/06/08 12:08:35;;;;;;;1.67;1.65;;;;;;;;;;10349080;28;20255;-78
2023/06/08 12:13:39;;;;;;;2.10;2.00;;;;;;;;;;10356348;28;20227;-78
2023/06/08 12:18:44;;;;;;;3.75;2.03;;;;;;;;;;10353562;28;22271;-80
2023/06/08 12:23:46;;;;;;;2.42;2.33;;;;;;;;;;10341748;28;20309;-79
2023/06/08 12:28:47;;;;;;;2.58;2.22;;;;;;;;;;10369687;28;20271;-79
2023/06/08 12:33:48;;;;;;;2.42;2.28;;;;;;;;;;10372951;28;20840;-79
2023/06/08 12:38:49;;;;;;;4.32;2.17;;;;;;;;;;10356609;28;20213;-79
2023/06/08 12:43:50;;;;;;;2.58;2.30;;;;;;;;;;10361992;28;20222;-81
2023/06/08 12:48:53;;;;;;;1.73;1.73;;;;;;;;;;10363394;28;21366;-82
2023/06/08 12:53:54;;;;;;;1.95;1.85;;;;;;;;;;10364696;28;20235;-80
2023/06/08 12:58:55;;;;;;;2.50;2.40;;;;;;;;;;10343229;28;20240;-79
2023/06/08 13:03:56;;;;;;;5.50;2.60;;;;;;;;;;10335081;28;20260;-79
2023/06/08 13:08:57;;;;;;;5.47;2.25;;;;;;;;;;10339286;28;20906;-81
2023/06/08 13:13:58;;;;;;;1.92;1.92;;;;;;;;;;10335820;28;21149;-82
2023/06/08 13:18:59;;;;;;;2.30;2.20;;;;;;;;;;10340378;28;20221;-79
2023/06/08 13:24:01;;;;;;;2.20;2.10;;;;;;;;;;10324731;28;20276;-78
2023/06/08 13:29:02;;;;;;;2.45;1.80;;;;;;;;;;10329609;28;20221;-80
2023/06/08 13:34:04;;;;;;;3.08;2.60;;;;;;;;;;10339888;28;20214;-79
2023/06/08 13:39:05;;;;;;;2.20;2.10;;;;;;;;;;10331697;28;20221;-80
2023/06/08 13:44:07;;;;;;;2.28;2.28;;;;;;;;;;10301339;28;20796;-79
2023/06/08 13:49:08;;;;;;;2.40;2.20;;;;;;;;;;10311002;28;20222;-79
2023/06/08 13:54:09;;;;;;;3.15;2.03;;;;;;;;;;10329254;28;20626;-79
2023/06/08 13:59:10;;;;;;;3.40;2.60;;;;;;;;;;10331903;28;20225;-79
2023/06/08 14:04:11;;;;;;;2.85;2.67;;;;;;;;;;10329582;28;20229;-78
2023/06/08 14:09:12;;;;;;;2.53;2.53;;;;;;;;;;10338242;28;21122;-79
2023/06/08 14:14:13;;;;;;;2.60;2.60;;;;;;;;;;10340170;28;20228;-78
2023/06/08 14:19:14;;;;;;;2.05;2.05;;;;;;;;;;10339162;28;20229;-78
2023/06/08 14:24:16;;;;;;;2.78;2.58;;;;;;;;;;10334394;28;20230;-78
2023/06/08 14:29:17;;;;;;;3.47;3.20;;;;;;;;;;10334546;28;20321;-78
2023/06/08 14:34:18;;;;;;;2.83;2.40;;;;;;;;;;10339740;28;20931;-77
2023/06/08 14:39:19;;;;;;;3.42;2.50;;;;;;;;;;10325163;28;20218;-77
2023/06/08 14:44:20;;;;;;;2.38;2.28;;;;;;;;;;10336277;28;20218;-78
2023/06/08 14:49:21;;;;;;;2.58;2.47;;;;;;;;;;10328917;28;20352;-78
2023/06/08 14:54:22;;;;;;;1.98;1.88;;;;;;;;;;10330990;28;20229;-78
2023/06/08 14:59:23;;;;;;;5.93;2.70;;;;;;;;;;10306724;28;20957;-77
2023/06/08 15:04:25;;;;;;;2.58;2.38;;;;;;;;;;10309389;28;20217;-78
2023/06/08 15:09:26;;;;;;;2.83;2.47;;;;;;;;;;10316637;28;21948;-80
2023/06/08 15:14:29;;;;;;;3.60;2.65;;;;;;;;;;10353871;28;22292;-80
2023/06/08 15:19:30;;;;;;;3.88;2.53;;;;;;;;;;10315501;28;20261;-83
2023/06/08 15:24:31;;;;;;;3.00;2.25;;;;;;;;;;10317037;28;20803;-81
2023/06/08 15:29:32;;;;;;;2.63;2.53;;;;;;;;;;10322269;28;20212;-81
2023/06/08 15:34:33;;;;;;;2.33;2.22;;;;;;;;;;10309868;28;20229;-83
2023/06/08 15:39:35;;;;;;;2.53;2.33;;;;;;;;;;10323976;28;20218;-83
2023/06/08 15:44:36;;;;;;;2.65;2.55;;;;;;;;;;10346281;28;20245;-79
2023/06/08 15:49:37;;;;;;;2.88;2.40;;;;;;;;;;10329085;28;20257;-78
2023/06/08 15:54:38;;;;;;;2.95;2.65;;;;;;;;;;10335261;28;20223;-79
2023/06/08 15:59:39;;;;;;;2.22;2.13;;;;;;;;;;10343032;28;20691;-78
2023/06/08 16:04:40;;;;;;;3.00;2.80;;;;;;;;;;10352571;28;20253;-83
2023/06/08 16:09:41;;;;;;;3.35;3.15;;;;;;;;;;10340328;28;20212;-80
2023/06/08 16:14:42;;;;;;;2.33;2.25;;;;;;;;;;10332936;28;20229;-83
2023/06/08 16:19:44;;;;;;;2.47;2.33;;;;;;;;;;10329388;28;20280;-82
2023/06/08 16:24:45;;;;;;;2.50;2.30;;;;;;;;;;10336640;28;20219;-81
2023/06/08 16:29:46;;;;;;;2.03;1.98;;;;;;;;;;10352642;28;20231;-81
2023/06/08 16:34:47;;;;;;;2.10;2.00;;;;;;;;;;10355366;28;20225;-82
2023/06/08 16:39:48;;;;;;;1.90;1.90;;;;;;;;;;10358403;28;20313;-82
2023/06/08 16:44:50;;;;;;;2.08;1.98;;;;;;;;;;10364666;28;20217;-82
2023/06/08 16:49:51;;;;;;;3.03;2.83;;;;;;;;;;10346072;28;20214;-82
2023/06/08 16:54:52;;;;;;;2.53;2.40;;;;;;;;;;10359828;28;20226;-83
2023/06/08 16:59:53;;;;;;;2.75;2.60;;;;;;;;;;10337212;28;20480;-79
2023/06/08 17:04:54;;;;;;;2.90;2.80;;;;;;;;;;10354375;28;20226;-80
2023/06/08 17:09:55;;;;;;;3.22;2.72;;;;;;;;;;10361181;28;20802;-79
2023/06/08 17:14:57;;;;;;;2.80;2.70;;;;;;;;;;10335951;28;20232;-80
2023/06/08 17:19:57;;;;;;;2.72;2.72;;;;;;;;;;10328444;28;20217;-78
2023/06/08 17:24:59;;;;;;;2.75;2.65;;;;;;;;;;10329114;28;21269;-79
2023/06/08 17:30:00;;;;;;;2.88;2.67;;;;;;;;;;10327466;28;20611;-80
2023/06/08 17:35:01;;;;;;;2.65;2.55;;;;;;;;;;10345630;28;20221;-81
2023/06/08 17:40:02;;;;;;;3.05;2.53;;;;;;;;;;10358663;28;20210;-81
2023/06/08 17:45:03;;;;;;;3.58;3.28;;;;;;;;;;10346768;28;21151;-79
2023/06/08 17:50:05;;;;;;;3.42;3.28;;;;;;;;;;10332160;28;21104;-80
2023/06/08 17:55:07;;;;;;;3.17;2.97;;;;;;;;;;10319498;28;20233;-84
2023/06/08 18:00:09;;;;;;;3.35;2.92;;;;;;;;;;10319730;28;20206;-83
2023/06/08 18:05:11;;;;;;;6.53;2.55;;;;;;;;;;10331142;28;20279;-80
2023/06/08 18:10:15;;;;;;;2.47;2.45;;;;;;;;;;10348607;28;20197;-83
2023/06/08 18:15:17;;;;;;;2.42;2.42;;;;;;;;;;10324606;28;20215;-81
2023/06/08 18:20:18;;;;;;;2.78;2.58;;;;;;;;;;10338501;28;20279;-79
2023/06/08 18:25:19;;;;;;;3.20;3.00;;;;;;;;;;10346983;28;22179;-83
2023/06/08 18:30:21;;;;;;;2.67;2.58;;;;;;;;;;10355781;28;20194;-85
2023/06/08 18:35:22;;;;;;;2.60;2.60;;;;;;;;;;10321483;28;20984;-85
2023/06/08 18:40:24;;;;;;;3.00;2.80;;;;;;;;;;10333716;28;21133;-83
2023/06/08 18:45:25;;;;;;;2.70;2.63;;;;;;;;;;10313364;28;20222;-82
2023/06/08 18:50:26;;;;;;;4.20;2.80;;;;;;;;;;10316451;28;20223;-82
2023/06/08 18:55:27;;;;;;;5.68;3.55;;;;;;;;;;10311798;28;20341;-84
2023/06/08 19:00:28;;;;;;;3.35;3.20;;;;;;;;;;10320798;28;20219;-82
2023/06/08 19:05:29;;;;;;;3.05;2.92;;;;;;;;;;10308615;28;21212;-82
2023/06/08 19:10:30;;;;;;;3.42;3.22;;;;;;;;;;10290642;28;20256;-79
2023/06/08 19:15:31;;;;;;;3.08;3.08;;;;;;;;;;10331225;28;20423;-81
2023/06/08 19:20:32;;;;;;;3.80;3.30;;;;;;;;;;10341320;28;20253;-81
2023/06/08 19:25:33;;;;;;;3.65;3.20;;;;;;;;;;10376999;28;20234;-82
2023/06/08 19:30:34;;;;;;;2.92;2.83;;;;;;;;;;10377797;28;20418;-81
2023/06/08 19:35:35;;;;;;;3.42;3.25;;;;;;;;;;10370083;28;20222;-81
2023/06/08 19:40:37;;;;;;;3.45;3.25;;;;;;;;;;10389385;28;21545;-81
2023/06/08 19:45:37;;;;;;;3.60;2.85;;;;;;;;;;10349297;28;21298;-81
2023/06/08 19:50:38;;;;;;;3.10;3.00;;;;;;;;;;10367572;28;20218;-79
2023/06/08 19:55:43;;;;;;;3.45;3.15;;;;;;;;;;10369849;28;20866;-79
2023/06/08 20:00:45;;;;;;;3.20;3.10;;;;;;;;;;10377642;28;20474;-79
2023/06/08 20:05:46;;;;;;;3.40;3.25;;;;;;;;;;10368113;28;20305;-80
2023/06/08 20:10:47;;;;;;;4.30;4.10;;;;;;;;;;10361709;28;20218;-81
2023/06/08 20:15:48;;;;;;;4.38;4.18;;;;;;;;;;10364320;28;22605;-79
2023/06/08 20:20:49;;;;;;;4.07;3.85;;;;;;;;;;10351585;28;20226;-79
2023/06/08 20:25:50;;;;;;;3.53;3.42;;;;;;;;;;10328470;28;22364;-78
2023/06/08 20:30:51;;;;;;;3.50;3.40;;;;;;;;;;10332365;28;20496;-80
2023/06/08 20:35:52;;;;;;;3.17;3.08;;;;;;;;;;10334083;28;20717;-80
2023/06/08 20:40:53;;;;;;;3.65;3.45;;;;;;;;;;10353265;28;20244;-79
2023/06/08 20:45:54;;;;;;;3.60;3.40;;;;;;;;;;10347290;28;20234;-80
2023/06/08 20:50:55;;;;;;;3.22;3.13;;;;;;;;;;10362800;28;20213;-81
2023/06/08 20:55:56;;;;;;;3.58;3.33;;;;;;;;;;10333360;28;20240;-80
2023/06/08 21:00:57;;;;;;;3.45;3.33;;;;;;;;;;10325316;28;20715;-79
2023/06/08 21:05:58;;;;;;;3.65;3.55;;;;;;;;;;10329710;28;20240;-79
2023/06/08 21:11:00;;;;;;;3.92;3.83;;;;;;;;;;10346161;28;20219;-81
2023/06/08 21:16:02;;;;;;;3.95;3.83;;;;;;;;;;10313991;28;20353;-81
2023/06/08 21:21:03;;;;;;;4.03;3.72;;;;;;;;;;10323938;28;20221;-82
2023/06/08 21:26:04;;;;;;;3.75;3.60;;;;;;;;;;10337775;28;20229;-80
2023/06/08 21:31:05;;;;;;;4.05;3.85;;;;;;;;;;10331923;28;20222;-80
2023/06/08 21:36:06;;;;;;;4.28;4.07;;;;;;;;;;10327052;28;20218;-80
2023/06/08 21:41:08;;;;;;;3.80;3.70;;;;;;;;;;10351063;28;21215;-80
2023/06/08 21:46:09;;;;;;;4.28;4.05;;;;;;;;;;10343690;28;20241;-81
2023/06/08 21:51:12;;;;;;;3.88;3.78;;;;;;;;;;10312007;28;20344;-81
2023/06/08 21:56:13;;;;;;;4.13;3.83;;;;;;;;;;10348299;28;20223;-80
2023/06/08 22:01:16;;;;;;;4.18;4.00;;;;;;;;;;10334778;28;20582;-80
2023/06/08 22:06:17;;;;;;;4.82;4.43;;;;;;;;;;10319459;28;20686;-80
2023/06/08 22:11:18;;;;;;;4.97;4.70;;;;;;;;;;10287451;28;20273;-80
2023/06/08 22:16:20;;;;;;;5.63;5.32;;;;;;;;;;10288195;28;20215;-80
2023/06/08 22:21:24;;;;;;;6.63;5.43;;;;;;;;;;10307040;28;20661;-80
2023/06/08 22:26:25;;;;;;;7.10;6.50;;;;;;;;;;10315440;28;20231;-80
2023/06/08 22:31:28;;;;;;;7.25;6.75;;;;;;;;;;10307681;28;20212;-79
2023/06/08 22:36:31;;;;;;;7.05;6.45;;;;;;;;;;10306353;28;20724;-79
2023/06/08 22:41:32;;;;;;;7.70;7.00;;;;;;;;;;10293030;28;20845;-80
2023/06/08 22:46:33;;;;;;;6.70;6.20;;;;;;;;;;10305954;28;20226;-81
2023/06/08 22:51:36;;;;;;;7.70;7.03;;;;;;;;;;10275158;28;20244;-78
2023/06/08 22:56:37;;;;;;;8.70;6.75;;;;;;;;;;10292663;28;23597;-79
2023/06/08 23:01:38;;;;;;;8.25;7.45;;;;;;;;;;10286893;28;20222;-79
2023/06/08 23:06:39;;;;;;;7.82;6.65;;;;;;;;;;10305196;28;20748;-79
2023/06/08 23:11:40;;;;;;;8.00;7.32;;;;;;;;;;10300439;28;20242;-80
2023/06/08 23:16:41;;;;;;;7.30;6.70;;;;;;;;;;10297892;28;20210;-79
2023/06/08 23:21:44;;;;;;;13.00;7.35;;;;;;;;;;10306562;28;20580;-81
2023/06/08 23:26:45;;;;;;;9.02;7.82;;;;;;;;;;10307231;28;20223;-79
2023/06/08 23:31:46;;;;;;;9.07;8.25;;;;;;;;;;10271512;28;20288;-79
2023/06/08 23:36:47;;;;;;;7.32;6.82;;;;;;;;;;10298820;28;20269;-79
2023/06/08 23:41:48;;;;;;;8.55;7.75;;;;;;;;;;10284019;28;20214;-79
2023/06/08 23:46:51;;;;;;;7.68;7.00;;;;;;;;;;10293394;28;20226;-80
2023/06/08 23:51:52;;;;;;;8.88;7.18;;;;;;;;;;10295740;28;20226;-80
2023/06/08 23:56:53;;;;;;;7.00;6.50;;;;;;;;;;10280593;28;21473;-80
